sensor_id;sensor_type;location;lat;lon;timestamp;P1;durP1;ratioP1;P2;durP2;ratioP2
5221;SDS011;2630;52.036;8.514;2023-09-19T00:00:37;73.07;;;6.07;;
5221;SDS011;2630;52.036;8.514;2023-09-19T00:03:03;73.77;;;5.30;;
5221;SDS011;2630;52.036;8.514;2023-09-19T00:05:34;73.00;;;5.93;;
5221;SDS011;2630;52.036;8.514;2023-09-19T00:08:01;73.27;;;6.03;;
5221;SDS011;2630;52.036;8.514;2023-09-19T00:10:30;77.47;;;6.10;;
5221;SDS011;2630;52.036;8.514;2023-09-19T00:13:00;73.17;;;5.63;;
5221;SDS011;2630;52.036;8.514;2023-09-19T00:15:30;73.10;;;5.40;;
5221;SDS011;2630;52.036;8.514;2023-09-19T00:17:58;73.00;;;5.67;;
5221;SDS011;2630;52.036;8.514;2023-09-19T00:20:24;72.97;;;5.27;;
5221;SDS011;2630;52.036;8.514;2023-09-19T00:22:51;72.87;;;5.53;;
5221;SDS011;2630;52.036;8.514;2023-09-19T00:25:18;73.77;;;6.07;;
5221;SDS011;2630;52.036;8.514;2023-09-19T00:27:44;73.00;;;5.10;;
5221;SDS011;2630;52.036;8.514;2023-09-19T00:30:10;75.30;;;6.40;;
5221;SDS011;2630;52.036;8.514;2023-09-19T00:32:55;73.07;;;5.47;;
5221;SDS011;2630;52.036;8.514;2023-09-19T00:35:20;73.10;;;5.77;;
5221;SDS011;2630;52.036;8.514;2023-09-19T00:37:49;73.17;;;5.93;;
5221;SDS011;2630;52.036;8.514;2023-09-19T00:40:15;73.10;;;5.83;;
5221;SDS011;2630;52.036;8.514;2023-09-19T00:42:42;73.20;;;5.83;;
5221;SDS011;2630;52.036;8.514;2023-09-19T00:45:09;76.20;;;6.23;;
5221;SDS011;2630;52.036;8.514;2023-09-19T00:47:37;73.07;;;5.97;;
5221;SDS011;2630;52.036;8.514;2023-09-19T00:50:09;73.90;;;5.53;;
5221;SDS011;2630;52.036;8.514;2023-09-19T00:52:39;73.07;;;5.97;;
5221;SDS011;2630;52.036;8.514;2023-09-19T00:55:07;73.07;;;6.17;;
5221;SDS011;2630;52.036;8.514;2023-09-19T00:57:34;73.10;;;5.73;;
5221;SDS011;2630;52.036;8.514;2023-09-19T01:00:01;73.13;;;5.83;;
5221;SDS011;2630;52.036;8.514;2023-09-19T01:02:32;73.87;;;5.63;;
5221;SDS011;2630;52.036;8.514;2023-09-19T01:04:58;73.67;;;5.43;;
5221;SDS011;2630;52.036;8.514;2023-09-19T01:07:25;75.20;;;5.80;;
5221;SDS011;2630;52.036;8.514;2023-09-19T01:09:51;73.57;;;5.70;;
5221;SDS011;2630;52.036;8.514;2023-09-19T01:12:22;80.00;;;5.97;;
5221;SDS011;2630;52.036;8.514;2023-09-19T01:18:02;73.00;;;6.10;;
5221;SDS011;2630;52.036;8.514;2023-09-19T01:28:30;78.17;;;7.37;;
5221;SDS011;2630;52.036;8.514;2023-09-19T01:31:12;72.57;;;5.00;;
5221;SDS011;2630;52.036;8.514;2023-09-19T01:36:29;80.20;;;6.07;;
5221;SDS011;2630;52.036;8.514;2023-09-19T01:39:00;76.10;;;6.60;;
5221;SDS011;2630;52.036;8.514;2023-09-19T01:41:37;75.30;;;6.10;;
5221;SDS011;2630;52.036;8.514;2023-09-19T01:44:13;73.40;;;5.97;;
5221;SDS011;2630;52.036;8.514;2023-09-19T01:46:49;80.10;;;6.57;;
5221;SDS011;2630;52.036;8.514;2023-09-19T01:54:40;73.07;;;5.53;;
5221;SDS011;2630;52.036;8.514;2023-09-19T01:57:17;72.80;;;5.70;;
5221;SDS011;2630;52.036;8.514;2023-09-19T01:59:50;72.60;;;4.90;;
5221;SDS011;2630;52.036;8.514;2023-09-19T02:02:21;72.77;;;5.63;;
5221;SDS011;2630;52.036;8.514;2023-09-19T02:04:49;73.60;;;5.87;;
5221;SDS011;2630;52.036;8.514;2023-09-19T02:07:15;73.23;;;5.63;;
5221;SDS011;2630;52.036;8.514;2023-09-19T02:09:41;79.33;;;6.60;;
5221;SDS011;2630;52.036;8.514;2023-09-19T02:12:08;73.00;;;5.10;;
5221;SDS011;2630;52.036;8.514;2023-09-19T02:14:34;73.93;;;5.80;;
5221;SDS011;2630;52.036;8.514;2023-09-19T02:17:03;72.77;;;5.47;;
5221;SDS011;2630;52.036;8.514;2023-09-19T02:19:34;78.50;;;6.50;;
5221;SDS011;2630;52.036;8.514;2023-09-19T02:22:00;73.00;;;5.70;;
5221;SDS011;2630;52.036;8.514;2023-09-19T02:24:28;72.77;;;5.57;;
5221;SDS011;2630;52.036;8.514;2023-09-19T02:26:54;72.87;;;5.70;;
5221;SDS011;2630;52.036;8.514;2023-09-19T02:29:20;73.27;;;6.17;;
5221;SDS011;2630;52.036;8.514;2023-09-19T02:31:47;74.80;;;5.90;;
5221;SDS011;2630;52.036;8.514;2023-09-19T02:34:13;72.87;;;5.70;;
5221;SDS011;2630;52.036;8.514;2023-09-19T02:36:41;91.30;;;6.60;;
5221;SDS011;2630;52.036;8.514;2023-09-19T02:39:09;75.37;;;5.83;;
5221;SDS011;2630;52.036;8.514;2023-09-19T02:41:36;72.70;;;5.47;;
5221;SDS011;2630;52.036;8.514;2023-09-19T02:44:02;75.40;;;5.97;;
5221;SDS011;2630;52.036;8.514;2023-09-19T02:46:32;72.80;;;5.33;;
5221;SDS011;2630;52.036;8.514;2023-09-19T02:48:58;76.30;;;6.00;;
5221;SDS011;2630;52.036;8.514;2023-09-19T02:51:24;75.90;;;5.83;;
5221;SDS011;2630;52.036;8.514;2023-09-19T02:53:50;72.57;;;5.37;;
5221;SDS011;2630;52.036;8.514;2023-09-19T02:56:17;80.40;;;6.40;;
5221;SDS011;2630;52.036;8.514;2023-09-19T02:58:44;72.80;;;5.77;;
5221;SDS011;2630;52.036;8.514;2023-09-19T03:01:10;72.60;;;5.00;;
5221;SDS011;2630;52.036;8.514;2023-09-19T03:03:37;72.97;;;5.87;;
5221;SDS011;2630;52.036;8.514;2023-09-19T03:06:07;72.77;;;5.53;;
5221;SDS011;2630;52.036;8.514;2023-09-19T03:08:34;72.80;;;5.53;;
5221;SDS011;2630;52.036;8.514;2023-09-19T03:11:03;74.90;;;5.80;;
5221;SDS011;2630;52.036;8.514;2023-09-19T03:13:30;75.40;;;6.27;;
5221;SDS011;2630;52.036;8.514;2023-09-19T03:15:56;72.97;;;5.63;;
5221;SDS011;2630;52.036;8.514;2023-09-19T03:18:23;73.20;;;5.57;;
5221;SDS011;2630;52.036;8.514;2023-09-19T03:20:54;73.33;;;5.43;;
5221;SDS011;2630;52.036;8.514;2023-09-19T03:23:21;72.87;;;5.37;;
5221;SDS011;2630;52.036;8.514;2023-09-19T03:25:47;73.27;;;5.93;;
5221;SDS011;2630;52.036;8.514;2023-09-19T03:28:13;72.83;;;5.87;;
5221;SDS011;2630;52.036;8.514;2023-09-19T03:30:40;73.10;;;5.90;;
5221;SDS011;2630;52.036;8.514;2023-09-19T03:33:07;75.37;;;5.67;;
5221;SDS011;2630;52.036;8.514;2023-09-19T03:35:33;72.80;;;5.30;;
5221;SDS011;2630;52.036;8.514;2023-09-19T03:37:59;72.57;;;5.07;;
5221;SDS011;2630;52.036;8.514;2023-09-19T03:40:25;73.70;;;4.90;;
5221;SDS011;2630;52.036;8.514;2023-09-19T03:42:51;72.80;;;5.17;;
5221;SDS011;2630;52.036;8.514;2023-09-19T03:45:17;74.17;;;5.27;;
5221;SDS011;2630;52.036;8.514;2023-09-19T03:47:43;85.60;;;14.23;;
5221;SDS011;2630;52.036;8.514;2023-09-19T03:50:12;75.77;;;5.43;;
5221;SDS011;2630;52.036;8.514;2023-09-19T03:52:40;75.30;;;5.83;;
5221;SDS011;2630;52.036;8.514;2023-09-19T03:55:06;73.17;;;5.50;;
5221;SDS011;2630;52.036;8.514;2023-09-19T03:57:32;77.70;;;6.10;;
5221;SDS011;2630;52.036;8.514;2023-09-19T04:00:01;83.33;;;7.33;;
5221;SDS011;2630;52.036;8.514;2023-09-19T04:02:27;82.07;;;6.63;;
5221;SDS011;2630;52.036;8.514;2023-09-19T04:04:58;72.63;;;4.90;;
5221;SDS011;2630;52.036;8.514;2023-09-19T04:07:24;83.83;;;6.13;;
5221;SDS011;2630;52.036;8.514;2023-09-19T04:09:53;73.97;;;5.53;;
5221;SDS011;2630;52.036;8.514;2023-09-19T04:12:19;72.57;;;5.17;;
5221;SDS011;2630;52.036;8.514;2023-09-19T04:14:44;73.30;;;5.73;;
5221;SDS011;2630;52.036;8.514;2023-09-19T04:17:10;77.97;;;5.67;;
5221;SDS011;2630;52.036;8.514;2023-09-19T04:19:36;84.40;;;7.57;;
5221;SDS011;2630;52.036;8.514;2023-09-19T04:22:02;75.60;;;6.17;;
5221;SDS011;2630;52.036;8.514;2023-09-19T04:24:29;74.87;;;5.77;;
5221;SDS011;2630;52.036;8.514;2023-09-19T04:26:55;73.90;;;5.17;;
5221;SDS011;2630;52.036;8.514;2023-09-19T04:29:22;75.67;;;5.87;;
5221;SDS011;2630;52.036;8.514;2023-09-19T04:31:48;73.53;;;5.27;;
5221;SDS011;2630;52.036;8.514;2023-09-19T04:34:14;75.80;;;5.93;;
5221;SDS011;2630;52.036;8.514;2023-09-19T04:36:40;72.67;;;5.00;;
5221;SDS011;2630;52.036;8.514;2023-09-19T04:39:06;72.83;;;5.20;;
5221;SDS011;2630;52.036;8.514;2023-09-19T04:41:33;73.50;;;6.73;;
5221;SDS011;2630;52.036;8.514;2023-09-19T04:43:59;73.00;;;5.47;;
5221;SDS011;2630;52.036;8.514;2023-09-19T04:46:25;73.63;;;5.33;;
5221;SDS011;2630;52.036;8.514;2023-09-19T04:48:51;72.70;;;5.50;;
5221;SDS011;2630;52.036;8.514;2023-09-19T04:51:17;74.33;;;5.77;;
5221;SDS011;2630;52.036;8.514;2023-09-19T04:53:45;77.17;;;5.80;;
5221;SDS011;2630;52.036;8.514;2023-09-19T04:56:12;80.07;;;5.60;;
5221;SDS011;2630;52.036;8.514;2023-09-19T04:58:38;75.30;;;5.60;;
5221;SDS011;2630;52.036;8.514;2023-09-19T05:01:04;78.90;;;6.20;;
5221;SDS011;2630;52.036;8.514;2023-09-19T05:03:30;72.67;;;5.23;;
5221;SDS011;2630;52.036;8.514;2023-09-19T05:05:55;73.20;;;5.80;;
5221;SDS011;2630;52.036;8.514;2023-09-19T05:08:21;73.47;;;5.57;;
5221;SDS011;2630;52.036;8.514;2023-09-19T05:10:47;72.90;;;6.20;;
5221;SDS011;2630;52.036;8.514;2023-09-19T05:13:13;73.33;;;5.80;;
5221;SDS011;2630;52.036;8.514;2023-09-19T05:15:40;95.77;;;19.70;;
5221;SDS011;2630;52.036;8.514;2023-09-19T05:18:05;73.87;;;6.20;;
5221;SDS011;2630;52.036;8.514;2023-09-19T05:20:32;75.17;;;5.63;;
5221;SDS011;2630;52.036;8.514;2023-09-19T05:23:03;72.80;;;5.57;;
5221;SDS011;2630;52.036;8.514;2023-09-19T05:25:32;77.43;;;6.07;;
5221;SDS011;2630;52.036;8.514;2023-09-19T05:28:02;73.27;;;5.50;;
5221;SDS011;2630;52.036;8.514;2023-09-19T05:30:28;76.70;;;5.70;;
5221;SDS011;2630;52.036;8.514;2023-09-19T05:32:54;72.67;;;5.23;;
5221;SDS011;2630;52.036;8.514;2023-09-19T05:35:21;73.97;;;5.97;;
5221;SDS011;2630;52.036;8.514;2023-09-19T05:37:47;88.13;;;6.60;;
5221;SDS011;2630;52.036;8.514;2023-09-19T05:40:16;72.70;;;5.43;;
5221;SDS011;2630;52.036;8.514;2023-09-19T05:42:42;77.30;;;5.97;;
5221;SDS011;2630;52.036;8.514;2023-09-19T05:45:09;72.80;;;5.60;;
5221;SDS011;2630;52.036;8.514;2023-09-19T05:47:37;73.17;;;5.23;;
5221;SDS011;2630;52.036;8.514;2023-09-19T05:50:03;76.13;;;6.17;;
5221;SDS011;2630;52.036;8.514;2023-09-19T05:52:30;74.27;;;5.93;;
5221;SDS011;2630;52.036;8.514;2023-09-19T05:54:56;72.70;;;4.90;;
5221;SDS011;2630;52.036;8.514;2023-09-19T05:57:22;77.80;;;5.30;;
5221;SDS011;2630;52.036;8.514;2023-09-19T05:59:49;76.70;;;5.90;;
5221;SDS011;2630;52.036;8.514;2023-09-19T06:02:15;73.37;;;5.60;;
5221;SDS011;2630;52.036;8.514;2023-09-19T06:04:41;75.60;;;5.60;;
5221;SDS011;2630;52.036;8.514;2023-09-19T06:07:07;72.97;;;5.73;;
5221;SDS011;2630;52.036;8.514;2023-09-19T06:09:33;75.00;;;5.77;;
5221;SDS011;2630;52.036;8.514;2023-09-19T06:11:58;88.23;;;7.00;;
5221;SDS011;2630;52.036;8.514;2023-09-19T06:14:28;75.30;;;5.80;;
5221;SDS011;2630;52.036;8.514;2023-09-19T06:16:55;74.40;;;5.60;;
5221;SDS011;2630;52.036;8.514;2023-09-19T06:19:21;78.60;;;5.73;;
5221;SDS011;2630;52.036;8.514;2023-09-19T06:21:47;72.63;;;4.97;;
5221;SDS011;2630;52.036;8.514;2023-09-19T06:24:13;75.77;;;5.80;;
5221;SDS011;2630;52.036;8.514;2023-09-19T06:26:40;81.23;;;5.90;;
5221;SDS011;2630;52.036;8.514;2023-09-19T06:29:05;72.77;;;5.33;;
5221;SDS011;2630;52.036;8.514;2023-09-19T06:31:32;73.37;;;5.80;;
5221;SDS011;2630;52.036;8.514;2023-09-19T06:33:58;73.87;;;5.60;;
5221;SDS011;2630;52.036;8.514;2023-09-19T06:36:24;88.60;;;7.07;;
5221;SDS011;2630;52.036;8.514;2023-09-19T06:38:50;72.90;;;5.60;;
5221;SDS011;2630;52.036;8.514;2023-09-19T06:41:17;79.73;;;6.50;;
5221;SDS011;2630;52.036;8.514;2023-09-19T06:43:43;80.20;;;6.10;;
5221;SDS011;2630;52.036;8.514;2023-09-19T06:46:09;74.17;;;5.50;;
5221;SDS011;2630;52.036;8.514;2023-09-19T06:48:35;74.43;;;5.67;;
5221;SDS011;2630;52.036;8.514;2023-09-19T06:51:01;76.50;;;5.90;;
5221;SDS011;2630;52.036;8.514;2023-09-19T06:53:33;79.20;;;5.97;;
5221;SDS011;2630;52.036;8.514;2023-09-19T06:56:00;72.80;;;5.23;;
5221;SDS011;2630;52.036;8.514;2023-09-19T06:58:26;79.33;;;5.97;;
5221;SDS011;2630;52.036;8.514;2023-09-19T07:00:52;75.73;;;6.00;;
5221;SDS011;2630;52.036;8.514;2023-09-19T07:03:19;73.73;;;5.57;;
5221;SDS011;2630;52.036;8.514;2023-09-19T07:05:47;76.13;;;5.07;;
5221;SDS011;2630;52.036;8.514;2023-09-19T07:08:13;73.37;;;5.63;;
5221;SDS011;2630;52.036;8.514;2023-09-19T07:10:39;81.43;;;10.73;;
5221;SDS011;2630;52.036;8.514;2023-09-19T07:13:17;72.80;;;5.57;;
5221;SDS011;2630;52.036;8.514;2023-09-19T07:15:44;73.30;;;5.07;;
5221;SDS011;2630;52.036;8.514;2023-09-19T07:18:15;75.83;;;5.83;;
5221;SDS011;2630;52.036;8.514;2023-09-19T07:20:43;72.90;;;5.57;;
5221;SDS011;2630;52.036;8.514;2023-09-19T07:25:43;75.80;;;5.73;;
5221;SDS011;2630;52.036;8.514;2023-09-19T07:28:11;73.57;;;5.53;;
5221;SDS011;2630;52.036;8.514;2023-09-19T07:30:48;74.77;;;5.53;;
5221;SDS011;2630;52.036;8.514;2023-09-19T07:33:14;72.87;;;5.57;;
5221;SDS011;2630;52.036;8.514;2023-09-19T07:35:40;72.40;;;4.83;;
5221;SDS011;2630;52.036;8.514;2023-09-19T07:38:07;72.90;;;5.13;;
5221;SDS011;2630;52.036;8.514;2023-09-19T07:40:33;72.70;;;5.27;;
5221;SDS011;2630;52.036;8.514;2023-09-19T07:43:00;75.23;;;5.90;;
5221;SDS011;2630;52.036;8.514;2023-09-19T07:45:29;74.67;;;5.10;;
5221;SDS011;2630;52.036;8.514;2023-09-19T07:47:55;72.60;;;5.00;;
5221;SDS011;2630;52.036;8.514;2023-09-19T07:50:21;72.77;;;5.27;;
5221;SDS011;2630;52.036;8.514;2023-09-19T07:52:48;75.40;;;5.90;;
5221;SDS011;2630;52.036;8.514;2023-09-19T07:55:16;72.77;;;5.27;;
5221;SDS011;2630;52.036;8.514;2023-09-19T07:57:42;72.90;;;5.37;;
5221;SDS011;2630;52.036;8.514;2023-09-19T08:00:09;74.53;;;5.17;;
5221;SDS011;2630;52.036;8.514;2023-09-19T08:02:35;77.90;;;6.47;;
5221;SDS011;2630;52.036;8.514;2023-09-19T08:05:03;84.60;;;7.93;;
5221;SDS011;2630;52.036;8.514;2023-09-19T08:07:35;76.30;;;5.57;;
5221;SDS011;2630;52.036;8.514;2023-09-19T08:10:01;74.37;;;5.40;;
5221;SDS011;2630;52.036;8.514;2023-09-19T08:12:27;76.70;;;5.63;;
5221;SDS011;2630;52.036;8.514;2023-09-19T08:14:53;75.20;;;5.77;;
5221;SDS011;2630;52.036;8.514;2023-09-19T08:17:20;75.03;;;5.57;;
5221;SDS011;2630;52.036;8.514;2023-09-19T08:19:47;74.17;;;5.77;;
5221;SDS011;2630;52.036;8.514;2023-09-19T08:22:14;76.30;;;6.53;;
5221;SDS011;2630;52.036;8.514;2023-09-19T08:24:42;76.47;;;5.47;;
5221;SDS011;2630;52.036;8.514;2023-09-19T08:27:08;74.17;;;5.80;;
5221;SDS011;2630;52.036;8.514;2023-09-19T08:29:35;85.07;;;7.80;;
5221;SDS011;2630;52.036;8.514;2023-09-19T08:32:01;77.70;;;6.00;;
5221;SDS011;2630;52.036;8.514;2023-09-19T08:34:27;72.67;;;5.63;;
5221;SDS011;2630;52.036;8.514;2023-09-19T08:36:55;78.50;;;6.93;;
5221;SDS011;2630;52.036;8.514;2023-09-19T08:39:22;72.63;;;5.23;;
5221;SDS011;2630;52.036;8.514;2023-09-19T08:41:48;76.40;;;4.93;;
5221;SDS011;2630;52.036;8.514;2023-09-19T08:44:14;75.60;;;5.60;;
5221;SDS011;2630;52.036;8.514;2023-09-19T08:46:41;74.60;;;5.30;;
5221;SDS011;2630;52.036;8.514;2023-09-19T08:49:10;72.70;;;5.43;;
5221;SDS011;2630;52.036;8.514;2023-09-19T08:51:53;73.63;;;5.50;;
5221;SDS011;2630;52.036;8.514;2023-09-19T08:54:27;72.47;;;5.03;;
5221;SDS011;2630;52.036;8.514;2023-09-19T08:56:58;72.97;;;5.43;;
5221;SDS011;2630;52.036;8.514;2023-09-19T08:59:33;81.73;;;6.37;;
5221;SDS011;2630;52.036;8.514;2023-09-19T09:02:00;73.37;;;5.67;;
5221;SDS011;2630;52.036;8.514;2023-09-19T09:04:26;72.87;;;5.50;;
5221;SDS011;2630;52.036;8.514;2023-09-19T09:06:53;80.37;;;6.37;;
5221;SDS011;2630;52.036;8.514;2023-09-19T09:09:20;73.30;;;5.47;;
5221;SDS011;2630;52.036;8.514;2023-09-19T09:11:48;73.67;;;5.40;;
5221;SDS011;2630;52.036;8.514;2023-09-19T09:14:16;72.53;;;5.63;;
5221;SDS011;2630;52.036;8.514;2023-09-19T09:16:42;80.43;;;6.50;;
5221;SDS011;2630;52.036;8.514;2023-09-19T09:19:08;74.37;;;5.43;;
5221;SDS011;2630;52.036;8.514;2023-09-19T09:21:34;74.10;;;5.10;;
5221;SDS011;2630;52.036;8.514;2023-09-19T09:26:55;72.37;;;5.30;;
5221;SDS011;2630;52.036;8.514;2023-09-19T09:29:41;74.87;;;5.63;;
5221;SDS011;2630;52.036;8.514;2023-09-19T09:34:54;74.17;;;5.50;;
5221;SDS011;2630;52.036;8.514;2023-09-19T09:37:22;72.90;;;5.53;;
5221;SDS011;2630;52.036;8.514;2023-09-19T09:39:50;73.30;;;5.70;;
5221;SDS011;2630;52.036;8.514;2023-09-19T09:42:29;72.60;;;5.40;;
5221;SDS011;2630;52.036;8.514;2023-09-19T09:45:17;74.63;;;5.80;;
5221;SDS011;2630;52.036;8.514;2023-09-19T09:48:02;73.50;;;5.50;;
5221;SDS011;2630;52.036;8.514;2023-09-19T09:50:38;76.20;;;5.37;;
5221;SDS011;2630;52.036;8.514;2023-09-19T09:53:25;76.87;;;5.77;;
5221;SDS011;2630;52.036;8.514;2023-09-19T09:55:57;73.87;;;5.20;;
5221;SDS011;2630;52.036;8.514;2023-09-19T09:58:27;79.40;;;6.03;;
5221;SDS011;2630;52.036;8.514;2023-09-19T10:01:00;94.97;;;6.83;;
5221;SDS011;2630;52.036;8.514;2023-09-19T10:03:37;74.33;;;5.67;;
5221;SDS011;2630;52.036;8.514;2023-09-19T10:06:05;74.07;;;5.77;;
5221;SDS011;2630;52.036;8.514;2023-09-19T10:12:03;76.00;;;5.80;;
5221;SDS011;2630;52.036;8.514;2023-09-19T10:14:38;73.70;;;5.80;;
5221;SDS011;2630;52.036;8.514;2023-09-19T10:17:08;77.80;;;5.93;;
5221;SDS011;2630;52.036;8.514;2023-09-19T10:22:01;79.93;;;6.00;;
5221;SDS011;2630;52.036;8.514;2023-09-19T10:24:28;75.10;;;5.80;;
5221;SDS011;2630;52.036;8.514;2023-09-19T10:26:56;73.20;;;5.37;;
5221;SDS011;2630;52.036;8.514;2023-09-19T10:29:22;76.60;;;5.90;;
5221;SDS011;2630;52.036;8.514;2023-09-19T10:31:51;80.47;;;5.77;;
5221;SDS011;2630;52.036;8.514;2023-09-19T10:34:18;74.23;;;5.57;;
5221;SDS011;2630;52.036;8.514;2023-09-19T10:36:45;72.57;;;5.07;;
5221;SDS011;2630;52.036;8.514;2023-09-19T10:39:12;73.10;;;5.63;;
5221;SDS011;2630;52.036;8.514;2023-09-19T10:41:43;77.03;;;6.03;;
5221;SDS011;2630;52.036;8.514;2023-09-19T10:44:19;78.00;;;6.03;;
5221;SDS011;2630;52.036;8.514;2023-09-19T10:46:47;74.97;;;5.60;;
5221;SDS011;2630;52.036;8.514;2023-09-19T10:49:13;72.60;;;5.43;;
5221;SDS011;2630;52.036;8.514;2023-09-19T10:51:40;74.30;;;5.43;;
5221;SDS011;2630;52.036;8.514;2023-09-19T10:54:10;75.80;;;5.60;;
5221;SDS011;2630;52.036;8.514;2023-09-19T10:56:40;73.17;;;5.60;;
5221;SDS011;2630;52.036;8.514;2023-09-19T10:59:10;73.77;;;5.83;;
5221;SDS011;2630;52.036;8.514;2023-09-19T11:01:56;72.57;;;5.10;;
5221;SDS011;2630;52.036;8.514;2023-09-19T11:04:26;74.67;;;5.70;;
5221;SDS011;2630;52.036;8.514;2023-09-19T11:07:03;75.87;;;5.70;;
5221;SDS011;2630;52.036;8.514;2023-09-19T11:09:52;74.30;;;5.70;;
5221;SDS011;2630;52.036;8.514;2023-09-19T11:14:57;75.87;;;6.37;;
5221;SDS011;2630;52.036;8.514;2023-09-19T11:30:41;74.07;;;5.70;;
5221;SDS011;2630;52.036;8.514;2023-09-19T11:49:17;130.97;;;9.20;;
5221;SDS011;2630;52.036;8.514;2023-09-19T11:51:48;122.20;;;7.87;;
5221;SDS011;2630;52.036;8.514;2023-09-19T11:54:19;106.97;;;7.63;;
5221;SDS011;2630;52.036;8.514;2023-09-19T11:56:53;108.23;;;7.70;;
5221;SDS011;2630;52.036;8.514;2023-09-19T11:59:20;109.00;;;8.00;;
5221;SDS011;2630;52.036;8.514;2023-09-19T12:01:51;114.80;;;8.57;;
5221;SDS011;2630;52.036;8.514;2023-09-19T12:04:22;145.77;;;10.70;;
5221;SDS011;2630;52.036;8.514;2023-09-19T12:07:08;119.97;;;8.93;;
5221;SDS011;2630;52.036;8.514;2023-09-19T12:09:44;138.63;;;9.80;;
5221;SDS011;2630;52.036;8.514;2023-09-19T12:14:50;100.17;;;7.63;;
5221;SDS011;2630;52.036;8.514;2023-09-19T12:17:16;104.93;;;7.80;;
5221;SDS011;2630;52.036;8.514;2023-09-19T12:19:51;76.30;;;8.30;;
5221;SDS011;2630;52.036;8.514;2023-09-19T12:22:17;76.83;;;5.73;;
5221;SDS011;2630;52.036;8.514;2023-09-19T12:24:45;74.10;;;5.63;;
5221;SDS011;2630;52.036;8.514;2023-09-19T12:27:11;79.77;;;6.10;;
5221;SDS011;2630;52.036;8.514;2023-09-19T12:29:45;81.63;;;6.63;;
5221;SDS011;2630;52.036;8.514;2023-09-19T12:32:14;92.43;;;7.50;;
5221;SDS011;2630;52.036;8.514;2023-09-19T12:34:42;74.43;;;6.10;;
5221;SDS011;2630;52.036;8.514;2023-09-19T12:39:38;85.20;;;7.10;;
5221;SDS011;2630;52.036;8.514;2023-09-19T12:42:06;77.20;;;5.67;;
5221;SDS011;2630;52.036;8.514;2023-09-19T12:44:34;73.57;;;5.67;;
5221;SDS011;2630;52.036;8.514;2023-09-19T12:47:08;74.43;;;6.03;;
5221;SDS011;2630;52.036;8.514;2023-09-19T12:49:34;79.90;;;6.53;;
5221;SDS011;2630;52.036;8.514;2023-09-19T12:52:00;78.07;;;6.10;;
5221;SDS011;2630;52.036;8.514;2023-09-19T12:54:37;87.93;;;7.27;;
5221;SDS011;2630;52.036;8.514;2023-09-19T12:57:04;74.17;;;5.67;;
5221;SDS011;2630;52.036;8.514;2023-09-19T12:59:30;76.27;;;6.43;;
5221;SDS011;2630;52.036;8.514;2023-09-19T13:02:04;79.77;;;6.37;;
5221;SDS011;2630;52.036;8.514;2023-09-19T13:04:38;79.33;;;5.93;;
5221;SDS011;2630;52.036;8.514;2023-09-19T13:07:06;89.27;;;6.97;;
5221;SDS011;2630;52.036;8.514;2023-09-19T13:09:34;77.07;;;6.30;;
5221;SDS011;2630;52.036;8.514;2023-09-19T13:12:00;75.17;;;5.57;;
5221;SDS011;2630;52.036;8.514;2023-09-19T13:14:28;88.70;;;6.90;;
5221;SDS011;2630;52.036;8.514;2023-09-19T13:19:39;87.40;;;7.60;;
5221;SDS011;2630;52.036;8.514;2023-09-19T13:27:44;92.47;;;7.27;;
5221;SDS011;2630;52.036;8.514;2023-09-19T13:30:10;75.10;;;6.03;;
5221;SDS011;2630;52.036;8.514;2023-09-19T13:32:39;75.67;;;6.40;;
5221;SDS011;2630;52.036;8.514;2023-09-19T13:35:07;74.53;;;5.53;;
5221;SDS011;2630;52.036;8.514;2023-09-19T13:37:38;75.23;;;5.80;;
5221;SDS011;2630;52.036;8.514;2023-09-19T13:40:11;72.97;;;5.60;;
5221;SDS011;2630;52.036;8.514;2023-09-19T13:42:38;77.90;;;6.10;;
5221;SDS011;2630;52.036;8.514;2023-09-19T13:45:05;73.50;;;5.53;;
5221;SDS011;2630;52.036;8.514;2023-09-19T13:47:31;82.00;;;5.90;;
5221;SDS011;2630;52.036;8.514;2023-09-19T13:49:57;79.70;;;6.30;;
5221;SDS011;2630;52.036;8.514;2023-09-19T13:52:23;77.93;;;6.10;;
5221;SDS011;2630;52.036;8.514;2023-09-19T13:54:53;76.90;;;6.40;;
5221;SDS011;2630;52.036;8.514;2023-09-19T13:57:21;73.10;;;5.50;;
5221;SDS011;2630;52.036;8.514;2023-09-19T13:59:50;74.37;;;5.77;;
5221;SDS011;2630;52.036;8.514;2023-09-19T14:02:17;73.60;;;6.33;;
5221;SDS011;2630;52.036;8.514;2023-09-19T14:04:43;79.10;;;6.20;;
5221;SDS011;2630;52.036;8.514;2023-09-19T14:07:10;72.80;;;5.60;;
5221;SDS011;2630;52.036;8.514;2023-09-19T14:09:36;87.80;;;7.30;;
5221;SDS011;2630;52.036;8.514;2023-09-19T14:12:02;79.17;;;6.40;;
5221;SDS011;2630;52.036;8.514;2023-09-19T14:14:28;77.83;;;6.10;;
5221;SDS011;2630;52.036;8.514;2023-09-19T14:16:54;84.20;;;6.63;;
5221;SDS011;2630;52.036;8.514;2023-09-19T14:19:20;72.77;;;6.20;;
5221;SDS011;2630;52.036;8.514;2023-09-19T14:21:46;73.30;;;5.87;;
5221;SDS011;2630;52.036;8.514;2023-09-19T14:24:16;74.80;;;6.13;;
5221;SDS011;2630;52.036;8.514;2023-09-19T14:26:42;75.47;;;6.20;;
5221;SDS011;2630;52.036;8.514;2023-09-19T14:29:08;74.90;;;6.60;;
5221;SDS011;2630;52.036;8.514;2023-09-19T14:31:37;75.47;;;5.90;;
5221;SDS011;2630;52.036;8.514;2023-09-19T14:34:03;74.70;;;6.10;;
5221;SDS011;2630;52.036;8.514;2023-09-19T14:36:30;81.50;;;6.23;;
5221;SDS011;2630;52.036;8.514;2023-09-19T14:38:56;73.10;;;5.70;;
5221;SDS011;2630;52.036;8.514;2023-09-19T14:41:24;73.63;;;5.70;;
5221;SDS011;2630;52.036;8.514;2023-09-19T14:43:54;74.33;;;5.50;;
5221;SDS011;2630;52.036;8.514;2023-09-19T14:46:20;76.00;;;6.20;;
5221;SDS011;2630;52.036;8.514;2023-09-19T14:48:46;74.50;;;5.33;;
5221;SDS011;2630;52.036;8.514;2023-09-19T14:51:12;77.57;;;6.27;;
5221;SDS011;2630;52.036;8.514;2023-09-19T14:53:39;76.40;;;5.83;;
5221;SDS011;2630;52.036;8.514;2023-09-19T14:56:06;74.17;;;5.70;;
5221;SDS011;2630;52.036;8.514;2023-09-19T14:58:33;73.90;;;6.07;;
5221;SDS011;2630;52.036;8.514;2023-09-19T15:01:06;75.37;;;6.10;;
5221;SDS011;2630;52.036;8.514;2023-09-19T15:03:35;73.07;;;5.87;;
5221;SDS011;2630;52.036;8.514;2023-09-19T15:06:02;73.87;;;5.13;;
5221;SDS011;2630;52.036;8.514;2023-09-19T15:08:32;72.60;;;5.20;;
5221;SDS011;2630;52.036;8.514;2023-09-19T15:10:59;72.90;;;5.97;;
5221;SDS011;2630;52.036;8.514;2023-09-19T15:13:29;72.90;;;5.67;;
5221;SDS011;2630;52.036;8.514;2023-09-19T15:15:58;73.00;;;5.70;;
5221;SDS011;2630;52.036;8.514;2023-09-19T15:18:25;73.10;;;5.90;;
5221;SDS011;2630;52.036;8.514;2023-09-19T15:20:51;72.77;;;5.50;;
5221;SDS011;2630;52.036;8.514;2023-09-19T15:23:17;73.30;;;5.90;;
5221;SDS011;2630;52.036;8.514;2023-09-19T15:25:50;72.97;;;5.77;;
5221;SDS011;2630;52.036;8.514;2023-09-19T15:28:18;74.47;;;6.40;;
5221;SDS011;2630;52.036;8.514;2023-09-19T15:30:47;73.80;;;5.77;;
5221;SDS011;2630;52.036;8.514;2023-09-19T15:33:14;73.87;;;5.60;;
5221;SDS011;2630;52.036;8.514;2023-09-19T15:35:40;76.00;;;6.40;;
5221;SDS011;2630;52.036;8.514;2023-09-19T15:38:07;73.07;;;5.90;;
5221;SDS011;2630;52.036;8.514;2023-09-19T15:40:33;73.87;;;5.90;;
5221;SDS011;2630;52.036;8.514;2023-09-19T15:42:59;81.07;;;6.27;;
5221;SDS011;2630;52.036;8.514;2023-09-19T15:45:25;79.00;;;6.63;;
5221;SDS011;2630;52.036;8.514;2023-09-19T15:47:51;79.73;;;6.17;;
5221;SDS011;2630;52.036;8.514;2023-09-19T15:50:18;74.50;;;6.00;;
5221;SDS011;2630;52.036;8.514;2023-09-19T15:52:44;73.43;;;5.87;;
5221;SDS011;2630;52.036;8.514;2023-09-19T15:55:09;75.43;;;5.80;;
5221;SDS011;2630;52.036;8.514;2023-09-19T15:57:36;87.27;;;6.40;;
5221;SDS011;2630;52.036;8.514;2023-09-19T16:00:03;90.57;;;7.50;;
5221;SDS011;2630;52.036;8.514;2023-09-19T16:02:35;82.47;;;5.97;;
5221;SDS011;2630;52.036;8.514;2023-09-19T16:05:03;78.97;;;6.03;;
5221;SDS011;2630;52.036;8.514;2023-09-19T16:07:32;76.20;;;5.80;;
5221;SDS011;2630;52.036;8.514;2023-09-19T16:09:59;76.10;;;6.10;;
5221;SDS011;2630;52.036;8.514;2023-09-19T16:12:25;82.40;;;6.40;;
5221;SDS011;2630;52.036;8.514;2023-09-19T16:14:51;79.63;;;6.40;;
5221;SDS011;2630;52.036;8.514;2023-09-19T16:17:17;79.30;;;6.43;;
5221;SDS011;2630;52.036;8.514;2023-09-19T16:19:43;83.80;;;6.90;;
5221;SDS011;2630;52.036;8.514;2023-09-19T16:22:09;78.60;;;6.20;;
5221;SDS011;2630;52.036;8.514;2023-09-19T16:24:35;75.10;;;5.90;;